Time;durP1;ratioP1;P1;durP2;ratioP2;P2;SDS_P1;SDS_P2;PMS_P1;PMS_P2;Temp;Humidity;BMP_temperature;BMP_pressure;BME280_temperature;BME280_humidity;BME280_pressure;Samples;Min_cycle;Max_cycle;Signal;HPM_P1;HPM_P2
2023/04/23 00:01:38;;;;;;;3.85;2.42;;;13.00;99.90;;;;;;5088346;28;20405;-69
2023/04/23 00:04:12;;;;;;;4.20;2.42;;;13.00;99.90;;;;;;5110067;28;20325;-69
2023/04/23 00:06:50;;;;;;;3.45;2.45;;;13.10;99.90;;;;;;5109448;28;20294;-68
2023/04/23 00:09:30;;;;;;;3.05;2.63;;;13.10;99.90;;;;;;5147515;28;20063;-69
2023/04/23 00:12:07;;;;;;;2.35;2.10;;;13.10;99.90;;;;;;5143978;28;20267;-68
2023/04/23 00:14:38;;;;;;;2.17;1.98;;;13.00;99.90;;;;;;5151389;28;20036;-69
2023/04/23 00:17:12;;;;;;;2.53;2.10;;;13.00;99.90;;;;;;5136684;28;20373;-69
2023/04/23 00:19:46;;;;;;;3.00;2.80;;;13.10;99.90;;;;;;5172725;28;20045;-66
2023/04/23 00:22:21;;;;;;;2.90;2.45;;;13.10;99.90;;;;;;5174475;28;20271;-68
2023/04/23 00:24:52;;;;;;;2.58;2.38;;;13.10;99.90;;;;;;5158163;28;20037;-69
2023/04/23 00:27:23;;;;;;;3.00;2.30;;;13.00;99.90;;;;;;5158084;28;20045;-69
2023/04/23 00:30:03;;;;;;;2.22;1.95;;;12.90;99.90;;;;;;5147799;28;20067;-69
2023/04/23 00:32:37;;;;;;;2.40;2.17;;;12.80;99.90;;;;;;5139524;28;20037;-69
2023/04/23 00:35:14;;;;;;;2.20;1.90;;;12.70;99.90;;;;;;5143519;28;20483;-66
2023/04/23 00:37:46;;;;;;;2.70;2.50;;;12.70;99.90;;;;;;5132992;28;20038;-68
2023/04/23 00:40:20;;;;;;;3.53;1.95;;;12.70;99.90;;;;;;5167969;28;20052;-68
2023/04/23 00:42:57;;;;;;;5.78;2.72;;;12.70;99.90;;;;;;5121080;28;20049;-66
2023/04/23 00:45:36;;;;;;;2.38;2.17;;;12.60;99.90;;;;;;5119870;28;20053;-68
2023/04/23 00:48:15;;;;;;;2.70;2.42;;;12.60;99.90;;;;;;5153527;28;20795;-67
2023/04/23 00:51:13;;;;;;;3.28;2.47;;;12.50;99.90;;;;;;5152691;28;20060;-67
2023/04/23 00:53:50;;;;;;;4.57;2.35;;;12.50;99.90;;;;;;5135202;28;20046;-68
2023/04/23 00:56:25;;;;;;;2.63;2.42;;;12.50;99.90;;;;;;5118542;28;20115;-70
2023/04/23 00:59:02;;;;;;;3.05;2.33;;;12.40;99.90;;;;;;5151233;28;20506;-69
2023/04/23 01:01:35;;;;;;;3.20;1.83;;;12.20;1.00;;;;;;5191376;23;20054;-70
2023/04/23 01:04:11;;;;;;;3.60;3.03;;;12.20;1.00;;;;;;5079722;28;20478;-69
2023/04/23 01:06:46;;;;;;;2.67;2.30;;;11.90;1.00;;;;;;5068377;28;20059;-69
2023/04/23 01:09:17;;;;;;;3.17;2.58;;;11.70;1.00;;;;;;5132286;28;20351;-67
2023/04/23 01:11:57;;;;;;;3.00;2.67;;;11.40;1.00;;;;;;5091471;28;20047;-67
2023/04/23 01:14:33;;;;;;;2.65;2.45;;;11.10;1.00;;;;;;5117215;28;20045;-71
2023/04/23 01:17:08;;;;;;;3.40;2.50;;;11.00;99.90;;;;;;5098235;28;20384;-64
2023/04/23 01:19:40;;;;;;;2.70;2.50;;;10.90;1.00;;;;;;5118847;28;20053;-68
2023/04/23 01:22:17;;;;;;;5.28;2.53;;;10.80;1.00;;;;;;5094465;28;20038;-70
2023/04/23 01:24:57;;;;;;;3.83;2.53;;;10.70;1.00;;;;;;5104686;28;20045;-71
2023/04/23 01:27:34;;;;;;;3.85;2.78;;;10.50;99.90;;;;;;5107174;28;20038;-70
2023/04/23 01:30:08;;;;;;;2.97;2.47;;;10.50;99.90;;;;;;5120946;28;20038;-69
2023/04/23 01:32:45;;;;;;;4.05;2.75;;;10.40;99.90;;;;;;5104451;28;20042;-67
2023/04/23 01:35:19;;;;;;;3.58;2.45;;;10.30;1.00;;;;;;5112116;28;20042;-71
2023/04/23 01:37:57;;;;;;;2.40;2.20;;;10.30;1.00;;;;;;5112925;28;20047;-69
2023/04/23 01:40:28;;;;;;;4.18;2.10;;;10.20;1.00;;;;;;5099326;28;20038;-67
2023/04/23 01:43:01;;;;;;;3.95;2.83;;;10.20;1.00;;;;;;5083661;28;20030;-65
2023/04/23 01:45:35;;;;;;;3.10;2.80;;;10.10;1.00;;;;;;5075080;28;20046;-67
2023/04/23 01:48:06;;;;;;;3.00;2.67;;;10.10;1.00;;;;;;5102262;28;20046;-67
2023/04/23 01:50:38;;;;;;;3.53;2.97;;;9.90;1.00;;;;;;5112633;28;20069;-69
2023/04/23 01:53:12;;;;;;;2.28;2.08;;;9.90;1.00;;;;;;5099138;29;20059;-69
2023/04/23 01:55:49;;;;;;;3.15;2.85;;;9.90;1.00;;;;;;5083147;29;20588;-69
2023/04/23 01:58:22;;;;;;;3.08;2.63;;;9.80;1.00;;;;;;5102706;28;20695;-66
2023/04/23 02:00:59;;;;;;;2.85;2.20;;;9.70;1.00;;;;;;5098703;28;20054;-66
2023/04/23 02:03:32;;;;;;;5.03;2.92;;;9.70;1.00;;;;;;5065012;29;20055;-68
2023/04/23 02:06:07;;;;;;;3.28;2.75;;;9.60;1.00;;;;;;5075417;29;20043;-67
2023/04/23 02:08:43;;;;;;;3.38;2.85;;;9.60;1.00;;;;;;5052708;28;20443;-71
2023/04/23 02:11:20;;;;;;;4.45;2.78;;;9.50;1.00;;;;;;5088134;28;20039;-68
2023/04/23 02:13:51;;;;;;;3.20;2.72;;;9.40;1.00;;;;;;5105715;29;20264;-67
2023/04/23 02:16:27;;;;;;;4.00;2.60;;;9.30;1.00;;;;;;5095217;29;20032;-69
2023/04/23 02:18:58;;;;;;;2.75;2.55;;;9.30;1.00;;;;;;5098441;29;20047;-69
2023/04/23 02:21:31;;;;;;;5.88;2.75;;;9.30;1.00;;;;;;5068859;29;20068;-69
2023/04/23 02:24:04;;;;;;;6.30;3.10;;;9.30;1.00;;;;;;5044218;29;20040;-66
2023/04/23 02:26:37;;;;;;;2.63;2.33;;;9.20;1.00;;;;;;5076875;29;20051;-68
2023/04/23 02:29:09;;;;;;;3.60;2.60;;;9.10;1.00;;;;;;5080330;29;20057;-70
2023/04/23 02:31:47;;;;;;;2.83;2.50;;;9.00;1.00;;;;;;5070446;29;20061;-65
2023/04/23 02:34:21;;;;;;;2.80;2.60;;;8.90;1.00;;;;;;5085299;29;20486;-69
2023/04/23 02:37:03;;;;;;;3.72;2.65;;;8.80;1.00;;;;;;5070186;28;20047;-65
2023/04/23 02:39:38;;;;;;;2.67;2.40;;;8.70;35.80;;;;;;5099434;28;20043;-66
2023/04/23 02:42:13;;;;;;;2.63;2.42;;;8.70;16.80;;;;;;5095654;29;20062;-71
2023/04/23 02:44:49;;;;;;;2.53;2.33;;;8.50;52.00;;;;;;5078504;29;20043;-68
2023/04/23 02:47:21;;;;;;;3.50;2.80;;;8.60;59.40;;;;;;5091567;29;20046;-70
2023/04/23 02:49:56;;;;;;;2.70;1.85;;;8.50;67.70;;;;;;5094969;29;20450;-67
2023/04/23 02:52:36;;;;;;;2.90;2.10;;;8.50;99.90;;;;;;5103277;29;20051;-66
2023/04/23 02:55:11;;;;;;;2.67;2.33;;;8.50;99.90;;;;;;5075672;29;20069;-70
2023/04/23 02:57:46;;;;;;;2.65;2.40;;;8.50;99.90;;;;;;5085585;29;20039;-68
2023/04/23 03:00:24;;;;;;;3.10;2.55;;;8.40;99.90;;;;;;5107711;29;20045;-66
2023/04/23 03:03:00;;;;;;;4.47;2.30;;;8.40;99.90;;;;;;5095576;29;20121;-69
2023/04/23 03:05:36;;;;;;;2.97;2.47;;;8.20;99.90;;;;;;5072486;29;20047;-69
2023/04/23 03:08:09;;;;;;;2.53;2.05;;;8.20;99.90;;;;;;5062797;29;20054;-67
2023/04/23 03:10:42;;;;;;;3.08;2.30;;;8.20;99.90;;;;;;5049017;29;20054;-68
2023/04/23 03:13:14;;;;;;;2.88;2.40;;;8.10;99.90;;;;;;5058663;29;20518;-68
2023/04/23 03:15:45;;;;;;;2.22;1.80;;;8.10;99.90;;;;;;5072189;29;20051;-67
2023/04/23 03:18:23;;;;;;;3.50;2.20;;;8.10;99.90;;;;;;5082962;28;20035;-68
2023/04/23 03:21:03;;;;;;;2.72;2.53;;;8.10;99.90;;;;;;5105982;28;20056;-69
2023/04/23 03:23:43;;;;;;;2.60;2.30;;;8.10;99.90;;;;;;5114506;28;20061;-69
2023/04/23 03:26:15;;;;;;;2.20;2.00;;;8.10;99.90;;;;;;5099009;28;20051;-69
2023/04/23 03:28:47;;;;;;;1.88;1.77;;;8.10;99.90;;;;;;5094677;29;20553;-68
2023/04/23 03:31:18;;;;;;;4.22;2.53;;;8.00;99.90;;;;;;5109690;29;20034;-69
2023/04/23 03:33:54;;;;;;;2.50;2.10;;;8.00;99.90;;;;;;5062438;29;20039;-70
2023/04/23 03:36:25;;;;;;;3.25;2.17;;;7.90;99.90;;;;;;5063033;29;20058;-70
2023/04/23 03:39:01;;;;;;;2.78;1.80;;;7.80;99.90;;;;;;5062477;29;20485;-70
2023/04/23 03:41:38;;;;;;;3.63;2.50;;;7.70;99.90;;;;;;5093544;29;20039;-70
2023/04/23 03:44:17;;;;;;;2.95;2.45;;;7.70;99.90;;;;;;5078484;28;20576;-70
2023/04/23 03:47:01;;;;;;;1.90;1.60;;;7.60;99.90;;;;;;5067630;28;20047;-71
2023/04/23 03:49:32;;;;;;;2.25;2.05;;;7.60;99.90;;;;;;5113713;28;20041;-67
2023/04/23 03:52:06;;;;;;;2.67;2.35;;;7.60;99.90;;;;;;5132075;28;20039;-70
2023/04/23 03:54:43;;;;;;;3.33;2.83;;;7.60;99.90;;;;;;5114381;28;20042;-68
2023/04/23 03:57:18;;;;;;;2.50;2.30;;;7.70;99.90;;;;;;5106426;29;20374;-67
2023/04/23 03:59:51;;;;;;;3.92;3.17;;;7.60;99.90;;;;;;5082184;29;20058;-69
2023/04/23 04:02:30;;;;;;;3.10;2.53;;;7.60;99.90;;;;;;5068713;29;20049;-68
2023/04/23 04:05:01;;;;;;;2.92;2.30;;;7.60;99.90;;;;;;5099429;29;20063;-68
2023/04/23 04:07:34;;;;;;;2.88;2.10;;;7.60;99.90;;;;;;5089296;29;20029;-68
2023/04/23 04:10:12;;;;;;;2.90;2.60;;;7.70;99.90;;;;;;5095208;29;20047;-68
2023/04/23 04:12:46;;;;;;;3.35;2.35;;;7.80;99.90;;;;;;5094388;29;20064;-70
2023/04/23 04:15:19;;;;;;;;;;;8.00;99.90;;;;;;5099314;28;20043;-68
2023/04/23 04:17:57;;;;;;;2.58;2.33;;;8.10;99.90;;;;;;5097190;28;19910;-70
2023/04/23 04:20:33;;;;;;;2.70;2.38;;;8.30;99.90;;;;;;5114414;28;20267;-69
2023/04/23 04:23:10;;;;;;;3.38;3.08;;;8.40;99.90;;;;;;5082202;29;20054;-69
2023/04/23 04:25:46;;;;;;;6.38;3.33;;;8.60;99.90;;;;;;5056988;29;20035;-66
2023/04/23 04:28:20;;;;;;;3.30;2.20;;;8.80;99.90;;;;;;5076115;29;20055;-68
2023/04/23 04:30:59;;;;;;;2.88;2.47;;;8.90;99.90;;;;;;5073240;29;20039;-68
2023/04/23 04:33:34;;;;;;;3.00;2.22;;;9.10;79.10;;;;;;5077157;29;20043;-67
2023/04/23 04:36:09;;;;;;;3.17;2.88;;;9.10;51.80;;;;;;5077745;29;20047;-69
2023/04/23 04:38:42;;;;;;;3.10;2.78;;;9.10;31.00;;;;;;5109451;28;20046;-65
2023/04/23 04:41:14;;;;;;;2.83;2.10;;;9.10;36.80;;;;;;5095946;29;20039;-68
2023/04/23 04:43:47;;;;;;;4.90;2.83;;;9.20;45.60;;;;;;5061986;29;20053;-69
2023/04/23 04:46:22;;;;;;;3.53;2.97;;;9.30;15.40;;;;;;5060289;29;20386;-68
2023/04/23 04:48:55;;;;;;;3.58;3.10;;;9.60;1.00;;;;;;5077239;29;20058;-66
2023/04/23 04:51:27;;;;;;;2.95;2.65;;;9.70;1.00;;;;;;5059044;29;20047;-67
2023/04/23 04:54:04;;;;;;;4.55;3.63;;;10.00;52.00;;;;;;5089880;29;20055;-70
2023/04/23 04:56:42;;;;;;;3.55;3.22;;;10.30;1.00;;;;;;5081942;29;20086;-70
2023/04/23 04:59:18;;;;;;;2.70;2.50;;;10.50;1.00;;;;;;5096443;29;20053;-66
2023/04/23 05:01:56;;;;;;;4.03;2.92;;;10.80;1.00;;;;;;5096027;29;20086;-69
2023/04/23 05:04:30;;;;;;;5.07;3.22;;;11.00;1.00;;;;;;5086701;29;20039;-66
2023/04/23 05:07:04;;;;;;;3.13;2.83;;;11.30;1.00;;;;;;5079657;29;20049;-66
2023/04/23 05:09:39;;;;;;;3.22;2.95;;;11.30;1.00;;;;;;5095570;29;20041;-68
2023/04/23 05:12:14;;;;;;;;;;;11.40;1.00;;;;;;5066267;29;20475;-67
2023/04/23 05:14:48;;;;;;;3.55;2.75;;;11.50;1.00;;;;;;5081858;29;19925;-67
2023/04/23 05:17:19;;;;;;;3.10;2.80;;;11.70;1.00;;;;;;5094339;29;20061;-69
2023/04/23 05:19:50;;;;;;;3.15;2.85;;;12.10;1.00;;;;;;5079991;29;20055;-68
2023/04/23 05:22:25;;;;;;;3.28;2.97;;;12.30;14.90;;;;;;5111702;29;20066;-70
2023/04/23 05:25:02;;;;;;;3.88;3.50;;;12.50;90.60;;;;;;5064818;29;20061;-70
2023/04/23 05:27:37;;;;;;;6.40;3.10;;;12.50;67.50;;;;;;5087697;29;20471;-68
2023/04/23 05:30:16;;;;;;;2.97;2.58;;;12.60;54.60;;;;;;5083528;29;20051;-70
2023/04/23 05:32:54;;;;;;;3.97;2.92;;;12.90;79.90;;;;;;5079611;29;20062;-69
2023/04/23 05:35:26;;;;;;;2.55;2.33;;;13.20;99.90;;;;;;5082135;29;20058;-70
2023/04/23 05:38:01;;;;;;;3.05;2.70;;;13.30;99.90;;;;;;5096191;29;20053;-67
2023/04/23 05:40:36;;;;;;;2.85;2.60;;;13.70;99.90;;;;;;5080899;29;20065;-69
2023/04/23 05:43:10;;;;;;;3.30;3.00;;;13.80;99.90;;;;;;5107558;28;20035;-70
2023/04/23 05:45:41;;;;;;;5.55;3.25;;;13.80;99.90;;;;;;5088671;29;20055;-66
2023/04/23 05:48:15;;;;;;;3.45;3.15;;;13.50;99.90;;;;;;5095547;29;20047;-71
2023/04/23 05:50:48;;;;;;;3.15;2.70;;;13.30;99.90;;;;;;5079710;29;20069;-70
2023/04/23 05:53:23;;;;;;;4.25;2.67;;;13.30;99.90;;;;;;5093994;29;20047;-68
2023/04/23 05:55:56;;;;;;;3.50;3.20;;;13.50;99.90;;;;;;5095022;29;20047;-68
2023/04/23 05:58:28;;;;;;;4.03;3.58;;;14.00;99.90;;;;;;5067403;29;20032;-68
2023/04/23 06:01:09;;;;;;;3.00;2.70;;;14.30;99.90;;;;;;5093237;29;20047;-68
2023/04/23 06:03:44;;;;;;;3.10;2.80;;;14.80;99.90;;;;;;5067602;29;20051;-68
2023/04/23 06:06:17;;;;;;;3.00;2.70;;;15.40;99.90;;;;;;5047549;29;20154;-69
2023/04/23 06:08:52;;;;;;;3.47;2.80;;;15.80;99.90;;;;;;5088551;29;20051;-67
2023/04/23 06:11:26;;;;;;;3.88;3.00;;;15.80;99.90;;;;;;5064078;28;20489;-68
2023/04/23 06:14:03;;;;;;;4.43;3.30;;;16.10;99.90;;;;;;5081454;28;20084;-70
2023/04/23 06:16:37;;;;;;;3.63;3.10;;;16.40;99.90;;;;;;5085751;29;20285;-70
2023/04/23 06:19:14;;;;;;;3.38;2.90;;;16.40;99.90;;;;;;5087148;28;20034;-70
2023/04/23 06:21:51;;;;;;;2.78;2.50;;;16.70;99.90;;;;;;5088604;29;20044;-69
2023/04/23 06:24:23;;;;;;;3.13;2.83;;;17.10;99.90;;;;;;5084237;29;20591;-67
2023/04/23 06:26:57;;;;;;;3.00;2.70;;;17.40;99.90;;;;;;5101869;29;20455;-70
2023/04/23 06:29:34;;;;;;;3.03;2.75;;;17.70;99.90;;;;;;5097562;29;20197;-70
2023/04/23 06:32:05;;;;;;;3.50;3.20;;;18.10;99.90;;;;;;5067252;28;20066;-70
2023/04/23 06:34:37;;;;;;;3.78;3.20;;;18.30;99.90;;;;;;5097153;28;20070;-69
2023/04/23 06:37:11;;;;;;;4.95;3.33;;;18.40;99.90;;;;;;5097758;28;20050;-68
2023/04/23 06:39:49;;;;;;;5.32;3.00;;;18.60;99.90;;;;;;5082374;28;20527;-70
2023/04/23 06:42:21;;;;;;;5.13;3.30;;;18.50;99.90;;;;;;5081176;29;20044;-68
2023/04/23 06:44:58;;;;;;;4.40;3.38;;;18.40;99.90;;;;;;5100649;28;20385;-69
2023/04/23 06:47:33;;;;;;;4.50;2.85;;;18.50;99.90;;;;;;5107803;29;20064;-68
2023/04/23 06:50:09;;;;;;;4.40;2.92;;;18.70;99.90;;;;;;5077231;29;20055;-68
2023/04/23 06:52:44;;;;;;;3.60;3.30;;;19.00;99.90;;;;;;5081725;29;20494;-70
2023/04/23 06:55:16;;;;;;;2.85;2.50;;;19.40;99.90;;;;;;5062279;29;20081;-70
2023/04/23 06:57:50;;;;;;;3.17;2.85;;;19.50;99.90;;;;;;5087019;29;20059;-70
2023/04/23 07:00:23;;;;;;;;;;;19.70;99.90;;;;;;5074723;29;20047;-66
2023/04/23 07:02:55;;;;;;;3.20;2.65;;;19.80;99.90;;;;;;5076227;29;19922;-70
2023/04/23 07:05:29;;;;;;;3.97;2.90;;;19.70;99.90;;;;;;5070208;29;20501;-67
2023/04/23 07:08:03;;;;;;;6.22;2.78;;;19.90;99.90;;;;;;5086959;29;20054;-71
2023/04/23 07:10:40;;;;;;;4.75;3.22;;;20.10;99.90;;;;;;5078423;29;20143;-68
2023/04/23 07:13:14;;;;;;;3.42;2.90;;;20.20;99.90;;;;;;5061167;29;20058;-70
2023/04/23 07:15:51;;;;;;;3.17;2.60;;;20.30;99.90;;;;;;5059211;29;20035;-71
2023/04/23 07:18:25;;;;;;;2.85;2.58;;;20.50;99.90;;;;;;5062625;29;20154;-70
2023/04/23 07:21:01;;;;;;;4.47;2.97;;;20.30;99.90;;;;;;5093515;29;20560;-68
2023/04/23 07:23:33;;;;;;;3.47;3.17;;;20.30;99.90;;;;;;5077803;29;20070;-72
2023/04/23 07:26:04;;;;;;;3.33;2.88;;;20.10;99.90;;;;;;5107353;29;20050;-72
2023/04/23 07:28:36;;;;;;;4.32;2.88;;;19.90;99.90;;;;;;5087316;29;20047;-69
2023/04/23 07:31:08;;;;;;;5.68;3.13;;;19.90;99.90;;;;;;5081292;29;20054;-71
2023/04/23 07:33:42;;;;;;;3.63;2.88;;;19.80;99.90;;;;;;5100525;29;20031;-71
2023/04/23 07:36:13;;;;;;;2.90;2.63;;;20.20;99.90;;;;;;5084934;29;20043;-72
2023/04/23 07:38:44;;;;;;;3.85;3.42;;;20.20;99.90;;;;;;5101087;29;20035;-69
2023/04/23 07:41:18;;;;;;;3.75;3.45;;;20.40;99.90;;;;;;5087731;29;20252;-69
2023/04/23 07:43:51;;;;;;;3.47;2.65;;;20.60;99.90;;;;;;5092034;29;20047;-72
2023/04/23 07:46:23;;;;;;;4.35;3.55;;;20.60;99.90;;;;;;5072316;29;20039;-69
2023/04/23 07:48:58;;;;;;;4.28;3.20;;;20.80;99.90;;;;;;5066284;29;20043;-68
2023/04/23 07:51:32;;;;;;;5.70;2.75;;;21.10;99.90;;;;;;5077733;29;20031;-68
2023/04/23 07:54:04;;;;;;;6.07;3.20;;;21.20;99.90;;;;;;5082852;29;20039;-72
2023/04/23 07:56:36;;;;;;;4.60;2.70;;;21.40;99.90;;;;;;5072703;29;20043;-72
2023/04/23 07:59:08;;;;;;;3.10;2.83;;;21.50;99.90;;;;;;5068780;29;20042;-69
2023/04/23 08:01:45;;;;;;;3.60;2.92;;;21.80;99.90;;;;;;5070580;29;20383;-70
2023/04/23 08:04:20;;;;;;;3.50;2.58;;;22.00;99.90;;;;;;5074299;29;20054;-72
2023/04/23 08:06:54;;;;;;;3.75;2.75;;;22.20;99.90;;;;;;5071950;29;20047;-69
2023/04/23 08:09:28;;;;;;;4.57;2.50;;;21.70;99.90;;;;;;5085235;29;20038;-69
2023/04/23 08:12:05;;;;;;;3.20;2.88;;;21.80;99.90;;;;;;5099889;29;20023;-66
2023/04/23 08:14:36;;;;;;;3.90;3.10;;;22.10;99.90;;;;;;5071069;29;20046;-71
2023/04/23 08:17:11;;;;;;;2.85;2.65;;;22.20;99.90;;;;;;5102273;29;20035;-67
2023/04/23 08:19:43;;;;;;;3.03;2.53;;;22.50;99.90;;;;;;5086362;28;20035;-72
2023/04/23 08:22:16;;;;;;;4.47;3.10;;;22.80;99.90;;;;;;5098393;29;20043;-68
2023/04/23 08:24:51;;;;;;;4.18;2.72;;;22.90;99.90;;;;;;5106081;29;20046;-70
2023/04/23 08:27:29;;;;;;;3.90;2.85;;;22.70;99.90;;;;;;5064617;29;20305;-68
2023/04/23 08:30:03;;;;;;;3.45;2.92;;;22.40;99.90;;;;;;5083866;28;20057;-70
2023/04/23 08:32:39;;;;;;;4.07;2.40;;;22.50;99.90;;;;;;5096135;28;20046;-71
2023/04/23 08:35:11;;;;;;;2.78;2.58;;;22.50;99.90;;;;;;5094853;29;20087;-71
2023/04/23 08:37:45;;;;;;;4.13;2.58;;;22.40;99.90;;;;;;5106386;28;20049;-69
2023/04/23 08:40:19;;;;;;;6.07;2.42;;;22.20;99.90;;;;;;5111444;29;20248;-70
2023/04/23 08:43:00;;;;;;;4.88;3.33;;;22.50;99.90;;;;;;5109423;29;20046;-71
2023/04/23 08:45:40;;;;;;;3.03;2.40;;;22.20;99.90;;;;;;5097844;28;20110;-69
2023/04/23 08:48:13;;;;;;;3.15;2.55;;;22.70;1.00;;;;;;5078380;29;20039;-69
2023/04/23 08:50:47;;;;;;;4.75;2.67;;;22.60;1.00;;;;;;5092982;29;20517;-69
2023/04/23 08:53:31;;;;;;;2.85;2.63;;;23.10;1.00;;;;;;5053453;29;20057;-71
2023/04/23 08:56:05;;;;;;;3.33;2.75;;;23.50;1.00;;;;;;5100423;29;20050;-71
2023/04/23 08:58:39;;;;;;;3.08;2.72;;;23.80;1.00;;;;;;5094082;29;20271;-69
2023/04/23 09:01:10;;;;;;;3.38;2.80;;;24.20;1.00;;;;;;5069367;28;20042;-71
2023/04/23 09:03:44;;;;;;;2.92;2.60;;;24.80;1.00;;;;;;5098173;29;20062;-72
2023/04/23 09:06:23;;;;;;;4.03;3.00;;;25.00;1.00;;;;;;5056328;29;20059;-70
2023/04/23 09:08:55;;;;;;;5.75;2.90;;;25.40;1.00;;;;;;5116051;29;20037;-70
2023/04/23 09:11:34;;;;;;;3.08;2.40;;;25.50;1.00;;;;;;5083758;29;20121;-71
2023/04/23 09:14:06;;;;;;;3.38;2.85;;;25.30;1.00;;;;;;5084444;29;20057;-71
2023/04/23 09:16:39;;;;;;;3.10;2.22;;;24.90;1.00;;;;;;5115250;29;20043;-70
2023/04/23 09:19:12;;;;;;;2.85;2.55;;;24.50;1.00;;;;;;5114410;29;20049;-66
2023/04/23 09:21:48;;;;;;;3.03;2.35;;;24.90;1.00;;;;;;5083181;29;20042;-70
2023/04/23 09:24:27;;;;;;;4.28;2.83;;;24.40;1.00;;;;;;5099775;29;20050;-69
2023/04/23 09:26:58;;;;;;;3.10;2.80;;;24.60;1.00;;;;;;5066993;29;20044;-70
2023/04/23 09:29:30;;;;;;;3.97;2.70;;;24.90;1.00;;;;;;5083267;29;20245;-70
2023/04/23 09:32:07;;;;;;;3.65;2.65;;;25.40;1.00;;;;;;5099080;29;20049;-66
2023/04/23 09:34:40;;;;;;;6.47;2.83;;;24.90;1.00;;;;;;5114893;29;20027;-70
2023/04/23 09:37:14;;;;;;;3.95;2.90;;;25.00;1.00;;;;;;5098929;29;20099;-68
2023/04/23 09:39:52;;;;;;;6.00;2.58;;;25.20;1.00;;;;;;5098731;29;20054;-68
2023/04/23 09:42:31;;;;;;;3.20;2.40;;;25.60;1.00;;;;;;5083474;29;20044;-69
2023/04/23 09:45:10;;;;;;;3.65;2.28;;;25.50;1.00;;;;;;5082566;29;20039;-72
2023/04/23 09:47:51;;;;;;;4.78;2.58;;;25.20;1.00;;;;;;5114909;29;20042;-70
2023/04/23 09:50:40;;;;;;;5.07;3.40;;;25.60;1.00;;;;;;5082081;29;20284;-69
2023/04/23 09:53:13;;;;;;;2.67;2.03;;;25.30;1.00;;;;;;5099216;29;20043;-69
2023/04/23 09:55:47;;;;;;;2.50;2.30;;;25.40;1.00;;;;;;5098079;29;20066;-70
2023/04/23 09:58:25;;;;;;;2.88;2.55;;;25.30;1.00;;;;;;5082970;29;20315;-72
2023/04/23 10:01:07;;;;;;;2.40;2.20;;;24.80;1.00;;;;;;5098771;29;20046;-68
2023/04/23 10:03:44;;;;;;;2.92;2.63;;;24.20;1.00;;;;;;5078007;29;20058;-65
2023/04/23 10:06:19;;;;;;;3.25;2.60;;;24.60;1.00;;;;;;5105117;28;20055;-68
2023/04/23 10:08:56;;;;;;;4.32;2.88;;;25.50;1.00;;;;;;5109440;29;20526;-71
2023/04/23 10:11:28;;;;;;;2.40;2.20;;;26.10;1.00;;;;;;5076682;29;20043;-69
2023/04/23 10:14:02;;;;;;;3.65;2.47;;;26.40;1.00;;;;;;5102564;29;20597;-67
2023/04/23 10:16:35;;;;;;;3.40;2.53;;;27.10;1.00;;;;;;5088070;29;20035;-70
2023/04/23 10:19:13;;;;;;;5.28;2.42;;;27.60;1.00;;;;;;5107656;29;20043;-71
2023/04/23 10:21:59;;;;;;;3.80;2.70;;;27.90;1.00;;;;;;5107024;29;20051;-69
2023/04/23 10:24:41;;;;;;;2.10;1.95;;;28.30;1.00;;;;;;5094840;29;20039;-71
2023/04/23 10:27:18;;;;;;;2.88;2.20;;;30.10;1.00;;;;;;5082515;29;20043;-68
2023/04/23 10:29:50;;;;;;;2.20;2.00;;;30.20;1.00;;;;;;5075183;28;20484;-70
2023/04/23 10:32:26;;;;;;;3.67;2.58;;;29.80;1.00;;;;;;5090370;28;20039;-67
2023/04/23 10:35:03;;;;;;;2.38;2.05;;;28.70;1.00;;;;;;5091403;28;20671;-67
2023/04/23 10:37:38;;;;;;;2.35;2.00;;;28.50;1.00;;;;;;5106626;29;20058;-70
2023/04/23 10:40:13;;;;;;;2.10;1.77;;;29.30;1.00;;;;;;5097762;29;20043;-69
2023/04/23 10:42:50;;;;;;;3.88;2.10;;;29.50;1.00;;;;;;5090711;29;20265;-69
2023/04/23 10:45:23;;;;;;;2.10;2.00;;;30.10;1.00;;;;;;5092170;28;20534;-67
2023/04/23 10:47:57;;;;;;;2.20;1.92;;;29.60;1.00;;;;;;5059276;29;20051;-71
2023/04/23 10:50:35;;;;;;;2.25;2.05;;;30.50;1.00;;;;;;5092875;29;20489;-67
2023/04/23 10:53:21;;;;;;;2.03;1.83;;;31.50;1.00;;;;;;5078081;29;20041;-70
2023/04/23 10:56:13;;;;;;;3.38;2.17;;;31.70;1.00;;;;;;5091080;29;20043;-68
2023/04/23 10:58:50;;;;;;;2.13;1.75;;;32.00;1.00;;;;;;5108321;29;20046;-69
2023/04/23 11:01:31;;;;;;;2.13;1.77;;;31.40;1.00;;;;;;5098860;28;20051;-69
2023/04/23 11:04:51;;;;;;;2.03;1.83;;;32.80;1.00;;;;;;5089003;28;20042;-67
2023/04/23 11:07:34;;;;;;;2.30;1.80;;;33.80;1.00;;;;;;4989179;29;20193;-69
2023/04/23 11:10:18;;;;;;;2.35;1.98;;;32.90;1.00;;;;;;4981276;29;20049;-70
2023/04/23 11:12:57;;;;;;;3.55;2.03;;;33.30;1.00;;;;;;5001411;29;20049;-70
2023/04/23 11:15:31;;;;;;;2.90;1.90;;;33.10;1.00;;;;;;5061475;29;20047;-65
2023/04/23 11:18:06;;;;;;;3.72;2.38;;;31.80;1.00;;;;;;5077073;29;20043;-70
2023/04/23 11:20:42;;;;;;;2.25;2.05;;;31.30;1.00;;;;;;5108785;28;20049;-68
2023/04/23 11:23:34;;;;;;;2.35;2.10;;;30.80;1.00;;;;;;5108640;29;20541;-66
2023/04/23 11:26:05;;;;;;;3.92;1.90;;;30.50;1.00;;;;;;5092461;29;20260;-69
2023/04/23 11:28:44;;;;;;;2.70;1.67;;;30.10;1.00;;;;;;5104100;29;20504;-67
2023/04/23 11:31:20;;;;;;;2.05;1.88;;;29.60;1.00;;;;;;5097676;28;20047;-71
2023/04/23 11:33:57;;;;;;;1.95;1.80;;;28.70;1.00;;;;;;5062112;29;20058;-67
2023/04/23 11:36:31;;;;;;;2.25;1.65;;;29.50;1.00;;;;;;5091761;29;20030;-66
2023/04/23 11:39:03;;;;;;;2.75;2.10;;;29.60;1.00;;;;;;5095369;29;20339;-71
2023/04/23 11:41:38;;;;;;;3.95;2.00;;;29.40;1.00;;;;;;5106899;29;20321;-69
2023/04/23 11:44:10;;;;;;;2.08;1.88;;;29.00;1.00;;;;;;5099041;29;20342;-68
2023/04/23 11:46:42;;;;;;;1.80;1.67;;;29.70;1.00;;;;;;5079990;29;20051;-69
2023/04/23 11:49:15;;;;;;;2.88;2.05;;;29.60;1.00;;;;;;5105955;28;20158;-70
2023/04/23 11:51:52;;;;;;;2.33;2.13;;;29.30;1.00;;;;;;5103279;29;20251;-68
2023/04/23 11:54:28;;;;;;;2.72;2.05;;;29.70;1.00;;;;;;5098319;29;20047;-68
2023/04/23 11:57:05;;;;;;;2.20;2.00;;;29.90;1.00;;;;;;5097897;29;20043;-64
2023/04/23 11:59:45;;;;;;;1.65;1.55;;;29.80;1.00;;;;;;5091345;29;20038;-72
2023/04/23 12:02:22;;;;;;;2.40;2.10;;;29.70;1.00;;;;;;5104258;29;20077;-68
2023/04/23 12:04:56;;;;;;;2.33;2.10;;;30.00;1.00;;;;;;5069203;29;20064;-66
2023/04/23 12:07:32;;;;;;;2.20;2.00;;;30.30;1.00;;;;;;5064309;29;20518;-68
2023/04/23 12:10:05;;;;;;;9.25;2.20;;;29.90;1.00;;;;;;5096811;29;20119;-69
2023/04/23 12:12:44;;;;;;;3.00;2.50;;;30.20;1.00;;;;;;5082407;29;20239;-67
2023/04/23 12:15:16;;;;;;;3.17;1.92;;;31.00;1.00;;;;;;5105869;29;20035;-70
2023/04/23 12:18:07;;;;;;;2.42;2.22;;;30.40;1.00;;;;;;5105222;29;20039;-69
2023/04/23 12:20:39;;;;;;;3.17;2.00;;;29.80;1.00;;;;;;5090070;29;20181;-69
2023/04/23 12:23:10;;;;;;;1.95;1.70;;;29.80;1.00;;;;;;5104039;29;20031;-67
2023/04/23 12:25:44;;;;;;;3.33;2.08;;;30.10;1.00;;;;;;5103067;29;20031;-69
2023/04/23 12:28:22;;;;;;;2.60;2.00;;;29.60;1.00;;;;;;5079301;28;20406;-70
2023/04/23 12:31:00;;;;;;;2.35;1.83;;;29.90;1.00;;;;;;5101689;29;20051;-69
2023/04/23 12:33:32;;;;;;;1.98;1.75;;;30.40;1.00;;;;;;5097330;29;20436;-70
2023/04/23 12:36:11;;;;;;;1.88;1.65;;;30.50;1.00;;;;;;5104286;29;20259;-67
2023/04/23 12:39:54;;;;;;;2.00;1.70;;;30.40;1.00;;;;;;5118912;29;20035;-62
2023/04/23 12:42:26;;;;;;;1.92;1.73;;;29.00;1.00;;;;;;5091363;29;20385;-67
2023/04/23 12:45:06;;;;;;;1.83;1.67;;;29.00;1.00;;;;;;5070266;29;20042;-68
2023/04/23 12:47:41;;;;;;;4.05;2.10;;;29.10;1.00;;;;;;5107778;29;20055;-68
2023/04/23 12:50:17;;;;;;;7.18;1.98;;;29.80;1.00;;;;;;5100949;29;20055;-71
2023/04/23 12:52:48;;;;;;;2.45;1.85;;;29.50;1.00;;;;;;5091007;29;20045;-66
2023/04/23 12:55:20;;;;;;;1.80;1.70;;;28.80;1.00;;;;;;5059699;29;20057;-67
2023/04/23 12:57:51;;;;;;;2.60;1.85;;;28.40;1.00;;;;;;5104762;29;20209;-69
2023/04/23 13:00:23;;;;;;;2.90;2.08;;;27.70;1.00;;;;;;5093462;29;20035;-69
2023/04/23 13:02:56;;;;;;;2.30;2.10;;;28.00;1.00;;;;;;5098393;29;20039;-70
2023/04/23 13:05:33;;;;;;;1.63;1.52;;;28.40;1.00;;;;;;5063713;29;20061;-68
2023/04/23 13:08:05;;;;;;;2.35;1.77;;;28.60;1.00;;;;;;5075615;29;20279;-69
2023/04/23 13:10:40;;;;;;;2.83;2.50;;;27.60;1.00;;;;;;5111018;29;20038;-66
2023/04/23 13:13:12;;;;;;;3.30;2.17;;;26.90;1.00;;;;;;5110964;29;20038;-70
2023/04/23 13:15:45;;;;;;;2.88;2.20;;;26.20;1.00;;;;;;5116443;28;20039;-64
2023/04/23 13:18:21;;;;;;;2.20;1.77;;;25.50;1.00;;;;;;5078304;29;20120;-70
2023/04/23 13:20:52;;;;;;;2.97;2.05;;;25.50;1.00;;;;;;5081519;29;20046;-67
2023/04/23 13:23:26;;;;;;;2.03;1.75;;;25.50;1.00;;;;;;5095294;29;20055;-65
2023/04/23 13:25:59;;;;;;;4.30;1.95;;;25.50;1.00;;;;;;5112120;28;20209;-70
2023/04/23 13:28:30;;;;;;;2.92;2.08;;;25.80;1.00;;;;;;5078915;28;20039;-70
2023/04/23 13:31:05;;;;;;;2.17;1.98;;;25.90;1.00;;;;;;5110405;29;20039;-71
2023/04/23 13:33:37;;;;;;;2.40;2.10;;;25.90;1.00;;;;;;5080825;29;20054;-66
2023/04/23 13:36:11;;;;;;;2.13;1.92;;;25.70;1.00;;;;;;5110549;28;20055;-69
2023/04/23 13:38:43;;;;;;;2.60;1.65;;;25.50;1.00;;;;;;5081470;28;20055;-67